createdAt,value
2022-12-19T00:00:48.914Z,-5.63
2022-12-19T00:03:29.465Z,-5.67
2022-12-19T00:06:02.268Z,-5.65
2022-12-19T00:08:31.839Z,-5.65
2022-12-19T00:11:03.270Z,-5.85
2022-12-19T00:13:40.310Z,-5.93
2022-12-19T00:16:15.245Z,-5.83
2022-12-19T00:18:48.711Z,-5.96
2022-12-19T00:21:19.891Z,-5.93
2022-12-19T00:23:49.843Z,-5.89
2022-12-19T00:26:21.127Z,-5.86
2022-12-19T00:28:53.217Z,-5.91
2022-12-19T00:31:25.145Z,-5.94
2022-12-19T00:33:55.054Z,-5.87
2022-12-19T00:36:26.235Z,-5.96
2022-12-19T00:38:57.644Z,-5.95
2022-12-19T00:41:29.605Z,-6.05
2022-12-19T00:44:00.951Z,-6.00
2022-12-19T00:46:32.793Z,-6.06
2022-12-19T00:49:03.169Z,-6.04
2022-12-19T00:51:34.899Z,-5.89
2022-12-19T00:54:06.726Z,-5.91
2022-12-19T00:56:38.430Z,-5.97
2022-12-19T00:59:11.300Z,-6.02
2022-12-19T01:01:43.069Z,-6.01
2022-12-19T01:04:28.148Z,-6.09
2022-12-19T01:06:58.052Z,-6.04
2022-12-19T01:09:36.050Z,-6.06
2022-12-19T01:12:24.862Z,-6.11
2022-12-19T01:15:03.737Z,-6.12
2022-12-19T01:17:43.589Z,-6.07
2022-12-19T01:20:16.095Z,-6.08
2022-12-19T01:22:47.087Z,-6.19
2022-12-19T01:25:17.238Z,-6.06
2022-12-19T01:27:46.553Z,-6.04
2022-12-19T01:30:16.209Z,-6.07
2022-12-19T01:32:47.535Z,-5.99
2022-12-19T01:35:21.818Z,-6.00
2022-12-19T01:37:52.268Z,-5.95
2022-12-19T01:40:31.569Z,-5.85
2022-12-19T01:43:02.270Z,-5.84
2022-12-19T01:45:35.395Z,-5.82
2022-12-19T01:48:15.650Z,-5.84
2022-12-19T01:51:01.412Z,-5.86
2022-12-19T01:53:48.245Z,-5.90
2022-12-19T01:56:23.875Z,-6.03
2022-12-19T01:58:58.950Z,-5.94
2022-12-19T02:01:49.548Z,-5.98
2022-12-19T02:04:32.152Z,-5.92
2022-12-19T02:07:15.874Z,-6.02
2022-12-19T02:09:49.637Z,-6.00
2022-12-19T02:12:28.066Z,-5.96
2022-12-19T02:15:02.788Z,-5.95
2022-12-19T02:17:41.925Z,-6.04
2022-12-19T02:20:45.639Z,-6.07
2022-12-19T02:23:41.020Z,-6.07
2022-12-19T02:26:31.844Z,-6.07
2022-12-19T02:29:22.113Z,-6.03
2022-12-19T02:31:59.966Z,-5.85
2022-12-19T02:34:40.053Z,-5.89
2022-12-19T02:37:20.825Z,-6.01
2022-12-19T02:39:55.725Z,-5.93
2022-12-19T02:42:30.574Z,-5.94
2022-12-19T02:45:06.331Z,-5.95
2022-12-19T02:47:38.707Z,-6.04
2022-12-19T02:50:10.394Z,-5.91
2022-12-19T02:52:46.937Z,-5.98
2022-12-19T02:55:21.766Z,-6.00
2022-12-19T02:58:02.243Z,-6.02
2022-12-19T03:00:34.358Z,-6.09
2022-12-19T03:03:11.274Z,-6.13
2022-12-19T03:05:48.223Z,-6.09
2022-12-19T03:08:24.915Z,-6.27
2022-12-19T03:11:02.760Z,-6.10
2022-12-19T03:13:36.675Z,-6.16
2022-12-19T03:16:09.666Z,-6.23
2022-12-19T03:18:40.831Z,-6.15
2022-12-19T03:21:16.860Z,-6.22
2022-12-19T03:23:46.274Z,-6.26
2022-12-19T03:26:19.862Z,-6.26
2022-12-19T03:28:53.974Z,-6.46
2022-12-19T03:36:25.343Z,-6.33
2022-12-19T03:38:57.015Z,-6.39
2022-12-19T03:41:42.047Z,-6.34
2022-12-19T03:44:12.935Z,-6.39
2022-12-19T03:46:47.174Z,-6.37
2022-12-19T03:49:16.732Z,-6.34
2022-12-19T03:51:59.391Z,-6.38
2022-12-19T03:54:33.386Z,-6.39
2022-12-19T03:57:08.707Z,-6.26
2022-12-19T03:59:44.438Z,-6.37
2022-12-19T04:02:17.223Z,-6.34
2022-12-19T04:04:48.831Z,-6.32
2022-12-19T04:07:21.370Z,-6.39
2022-12-19T04:09:52.098Z,-6.37
2022-12-19T04:12:26.651Z,-6.37
2022-12-19T04:14:56.065Z,-6.34
2022-12-19T04:17:35.520Z,-6.27
2022-12-19T04:20:07.857Z,-6.28
2022-12-19T04:22:43.905Z,-6.28
2022-12-19T04:25:17.559Z,-6.32
2022-12-19T04:27:52.495Z,-6.32
2022-12-19T04:30:22.212Z,-6.25
2022-12-19T04:32:52.435Z,-6.44
2022-12-19T04:35:21.832Z,-6.33
2022-12-19T04:37:53.922Z,-6.42
2022-12-19T04:40:23.268Z,-6.30
2022-12-19T04:42:52.949Z,-6.19
2022-12-19T04:45:22.551Z,-6.33
2022-12-19T04:47:52.195Z,-6.20
2022-12-19T04:50:21.734Z,-6.23
2022-12-19T04:52:57.003Z,-6.44
2022-12-19T04:55:26.705Z,-6.29
2022-12-19T04:57:56.391Z,-6.37
2022-12-19T05:00:25.786Z,-6.36
2022-12-19T05:02:55.785Z,-6.28
2022-12-19T05:05:25.630Z,-6.28
2022-12-19T05:08:00.631Z,-6.30
2022-12-19T05:10:31.249Z,-6.30
2022-12-19T05:13:00.854Z,-6.38
2022-12-19T05:15:30.115Z,-6.40
2022-12-19T05:17:59.928Z,-6.33
2022-12-19T05:20:29.262Z,-6.47
2022-12-19T05:23:04.352Z,-6.33
2022-12-19T05:25:35.148Z,-6.31
2022-12-19T05:28:06.206Z,-6.36
2022-12-19T05:30:35.608Z,-6.35
2022-12-19T05:33:05.178Z,-6.26
2022-12-19T05:35:35.619Z,-6.27
2022-12-19T05:38:06.828Z,-6.36
2022-12-19T05:40:36.221Z,-6.29
2022-12-19T05:43:06.192Z,-6.44
2022-12-19T05:45:35.760Z,-6.33
2022-12-19T05:48:06.051Z,-6.35
2022-12-19T05:50:39.391Z,-6.43
2022-12-19T05:53:13.498Z,-6.41
2022-12-19T05:55:43.209Z,-6.41
2022-12-19T05:58:13.508Z,-6.42
2022-12-19T06:00:43.402Z,-6.47
2022-12-19T06:03:13.527Z,-6.49
2022-12-19T06:05:43.292Z,-6.39
2022-12-19T06:08:15.090Z,-6.38
2022-12-19T06:10:44.311Z,-6.47
2022-12-19T06:13:13.799Z,-6.55
2022-12-19T06:15:43.118Z,-6.39
2022-12-19T06:18:12.788Z,-6.44
2022-12-19T06:20:42.035Z,-6.51
2022-12-19T06:23:13.140Z,-6.49
2022-12-19T06:25:42.397Z,-6.52
2022-12-19T06:28:11.969Z,-6.44
2022-12-19T06:30:41.157Z,-6.40
2022-12-19T06:33:10.711Z,-6.49
2022-12-19T06:35:39.947Z,-6.42
2022-12-19T06:38:09.512Z,-6.44
2022-12-19T06:41:01.167Z,-6.34
2022-12-19T06:43:30.998Z,-6.45
2022-12-19T06:46:00.387Z,-6.39
2022-12-19T06:48:30.457Z,-6.39
2022-12-19T06:51:00.120Z,-6.35
2022-12-19T06:53:30.267Z,-6.26
2022-12-19T06:56:01.801Z,-6.17
2022-12-19T06:58:31.399Z,-6.16
2022-12-19T07:01:01.624Z,-6.26
2022-12-19T07:03:37.016Z,-6.16
2022-12-19T07:06:07.083Z,-6.33
2022-12-19T07:08:36.676Z,-6.23
2022-12-19T07:11:07.664Z,-6.01
2022-12-19T07:13:37.235Z,-6.19
2022-12-19T07:16:08.485Z,-6.10
2022-12-19T07:18:41.498Z,-6.12
2022-12-19T07:21:12.829Z,-6.16
2022-12-19T07:23:43.196Z,-6.01
2022-12-19T07:26:14.090Z,-5.91
2022-12-19T07:28:44.694Z,-5.95
2022-12-19T07:31:14.211Z,-5.85
2022-12-19T07:33:43.939Z,-5.81
2022-12-19T07:36:13.490Z,-5.95
2022-12-19T07:38:43.132Z,-5.83
2022-12-19T07:41:13.827Z,-5.74
2022-12-19T07:43:43.476Z,-5.70
2022-12-19T07:46:12.825Z,-5.71
2022-12-19T07:48:42.707Z,-5.73
2022-12-19T07:51:12.007Z,-5.78
2022-12-19T07:53:41.777Z,-5.44
2022-12-19T07:56:12.549Z,-5.68
2022-12-19T07:58:42.878Z,-5.52
2022-12-19T08:01:14.182Z,-5.55
2022-12-19T08:03:44.143Z,-5.19
2022-12-19T08:06:13.614Z,-5.45
2022-12-19T08:08:43.339Z,-5.29
2022-12-19T08:11:17.249Z,-5.18
2022-12-19T08:13:47.263Z,-5.23
2022-12-19T08:16:16.864Z,-5.33
2022-12-19T08:18:47.930Z,-5.37
2022-12-19T08:21:17.364Z,-5.16
2022-12-19T08:23:47.096Z,-5.17
2022-12-19T08:26:25.532Z,-5.02
2022-12-19T08:28:56.532Z,-5.07
2022-12-19T08:31:28.382Z,-4.85
2022-12-19T08:33:59.196Z,-4.82
2022-12-19T08:36:29.003Z,-4.78
2022-12-19T08:38:59.144Z,-4.82
2022-12-19T08:41:30.563Z,-4.65
2022-12-19T08:44:00.991Z,-4.71
2022-12-19T08:46:30.735Z,-4.67
2022-12-19T08:49:01.135Z,-4.70
2022-12-19T08:51:30.372Z,-4.47
2022-12-19T08:54:01.070Z,-4.40
2022-12-19T08:56:32.890Z,-4.47
2022-12-19T08:59:03.199Z,-4.22
2022-12-19T09:01:32.561Z,-3.95
2022-12-19T09:05:58.507Z,-3.88
2022-12-19T09:06:51.668Z,-3.85
2022-12-19T09:09:21.345Z,-3.81
2022-12-19T09:11:52.064Z,-3.93
2022-12-19T09:14:21.807Z,-3.67
2022-12-19T09:16:51.276Z,-3.45
2022-12-19T09:19:21.016Z,-3.48
2022-12-19T09:21:50.436Z,-3.54
2022-12-19T09:24:20.517Z,-3.09
2022-12-19T09:26:51.363Z,-3.40
2022-12-19T09:29:21.969Z,-3.41
2022-12-19T09:31:56.378Z,-3.04
2022-12-19T09:34:33.013Z,-3.02
2022-12-19T09:37:08.778Z,-3.07
2022-12-19T09:39:38.544Z,-3.07
2022-12-19T09:42:29.814Z,-2.87
2022-12-19T09:45:14.648Z,-2.88
2022-12-19T09:48:02.821Z,-2.64
2022-12-19T09:50:40.707Z,-2.33
2022-12-19T09:53:17.355Z,-2.06
2022-12-19T09:55:48.088Z,-1.73
2022-12-19T09:58:33.259Z,-1.41
2022-12-19T10:01:07.638Z,-0.91
2022-12-19T10:03:41.268Z,-0.78
2022-12-19T10:07:16.110Z,-1.16
2022-12-19T10:11:16.341Z,-2.01
2022-12-19T10:12:44.837Z,-1.21
2022-12-19T10:15:21.228Z,0.45
2022-12-19T10:18:06.270Z,0.05
2022-12-19T10:20:38.828Z,0.93
2022-12-19T10:23:29.179Z,0.77
2022-12-19T10:26:05.762Z,1.41
2022-12-19T10:28:50.989Z,1.00
2022-12-19T10:31:29.135Z,0.70
2022-12-19T10:34:03.813Z,0.67
2022-12-19T10:37:12.358Z,0.13
2022-12-19T10:39:35.376Z,1.02
2022-12-19T10:42:12.594Z,0.75
2022-12-19T10:44:44.476Z,1.16
2022-12-19T10:47:18.533Z,0.75
2022-12-19T10:49:49.420Z,0.71
2022-12-19T10:52:51.307Z,0.42
2022-12-19T10:55:45.726Z,0.56
2022-12-19T10:58:21.746Z,0.86
2022-12-19T11:01:07.300Z,2.37
2022-12-19T11:03:38.992Z,1.87
2022-12-19T11:06:43.465Z,1.48
2022-12-19T11:09:25.137Z,3.05
2022-12-19T11:16:10.502Z,2.96
2022-12-19T11:19:27.483Z,3.51
2022-12-19T11:23:23.418Z,3.82
2022-12-19T11:29:32.716Z,2.51
2022-12-19T11:30:26.149Z,2.31
2022-12-19T11:30:45.316Z,2.00
2022-12-19T11:31:55.646Z,1.75
2022-12-19T11:32:41.316Z,2.37
2022-12-19T11:35:20.988Z,2.31
2022-12-19T11:37:59.647Z,1.25
2022-12-19T11:40:35.262Z,0.98
2022-12-19T11:46:09.147Z,0.11
2022-12-19T11:48:42.362Z,0.17
2022-12-19T11:51:22.455Z,-0.15
2022-12-19T11:54:03.742Z,-0.14
2022-12-19T11:56:33.693Z,-0.78
2022-12-19T11:59:13.178Z,-0.65
2022-12-19T12:02:05.245Z,-1.02
2022-12-19T12:05:06.408Z,-0.88
2022-12-19T12:08:54.297Z,-0.92
2022-12-19T12:16:39.953Z,-1.24
2022-12-19T12:24:58.850Z,-0.90
2022-12-19T12:29:42.492Z,-0.95
2022-12-19T12:31:18.798Z,-1.25
2022-12-19T12:31:21.673Z,-1.31
2022-12-19T12:31:38.740Z,-1.38
2022-12-19T12:31:51.533Z,-1.34
2022-12-19T12:35:38.459Z,-1.60
2022-12-19T12:37:17.443Z,-1.45
2022-12-19T12:38:23.531Z,-1.45
2022-12-19T12:41:19.522Z,-1.36
2022-12-19T12:44:02.019Z,-1.39
2022-12-19T12:46:38.428Z,-1.33
2022-12-19T12:49:16.918Z,-1.38
2022-12-19T12:51:47.294Z,-1.43
2022-12-19T12:54:18.380Z,-1.16
2022-12-19T12:56:49.837Z,-1.21
2022-12-19T12:59:25.079Z,-1.44
2022-12-19T13:01:56.864Z,-1.41
2022-12-19T13:04:34.195Z,-1.31
2022-12-19T13:07:21.515Z,-1.40
2022-12-19T13:09:56.446Z,-1.28
2022-12-19T13:12:47.057Z,-1.36
2022-12-19T13:15:44.240Z,-1.25
2022-12-19T13:18:40.235Z,-1.33
2022-12-19T13:21:11.061Z,-1.25
2022-12-19T13:24:16.056Z,-1.29
2022-12-19T13:26:49.528Z,-1.21
2022-12-19T13:29:31.500Z,-1.31
2022-12-19T13:32:16.142Z,-1.18
2022-12-19T13:34:58.248Z,-1.20
2022-12-19T13:40:02.077Z,-1.09
2022-12-19T13:40:53.289Z,-1.15
2022-12-19T13:43:43.492Z,-1.09
2022-12-19T13:46:27.696Z,-1.03
2022-12-19T13:49:02.237Z,-0.99
2022-12-19T13:51:43.637Z,-0.98
2022-12-19T13:54:28.513Z,-0.94
2022-12-19T13:57:03.846Z,-1.05
2022-12-19T13:59:54.403Z,-1.07
2022-12-19T14:02:43.403Z,-1.04
2022-12-19T14:06:15.081Z,-1.04
2022-12-19T14:08:19.218Z,-1.06
2022-12-19T14:11:35.881Z,-1.00
2022-12-19T14:15:12.411Z,-1.07
2022-12-19T14:17:49.871Z,-1.21
2022-12-19T14:22:02.017Z,-1.01
2022-12-19T14:23:12.590Z,-1.06
2022-12-19T14:28:16.858Z,-0.94
2022-12-19T14:28:42.551Z,-0.93
2022-12-19T14:31:15.613Z,-1.04
2022-12-19T14:36:41.761Z,-1.09
2022-12-19T14:39:23.899Z,-0.91
2022-12-19T14:42:48.310Z,-1.12
2022-12-19T14:52:25.373Z,-1.02
2022-12-19T14:52:25.644Z,-1.04
2022-12-19T14:54:22.463Z,-0.99
2022-12-19T14:57:25.423Z,-1.00
2022-12-19T15:01:09.715Z,-0.97
2022-12-19T15:03:24.903Z,-0.96
2022-12-19T15:06:31.529Z,-0.83
2022-12-19T15:09:17.501Z,-0.95
2022-12-19T15:14:55.046Z,-1.04
2022-12-19T15:15:19.445Z,-0.92
2022-12-19T15:17:50.117Z,-1.06
2022-12-19T15:20:20.509Z,-0.93
2022-12-19T15:22:50.057Z,-0.94
2022-12-19T15:26:01.316Z,-1.06
2022-12-19T15:28:15.549Z,-0.94
2022-12-19T15:30:49.642Z,-0.90
2022-12-19T15:33:19.203Z,-0.89
2022-12-19T15:35:48.942Z,-0.85
2022-12-19T15:38:18.523Z,-0.84
2022-12-19T15:40:50.166Z,-0.78
2022-12-19T15:44:01.313Z,-0.87
2022-12-19T15:46:14.738Z,-0.84
2022-12-19T15:48:49.204Z,-0.77
2022-12-19T15:51:19.070Z,-0.65
2022-12-19T15:53:48.419Z,-0.75
2022-12-19T15:56:28.522Z,-0.73
2022-12-19T15:59:01.938Z,-0.75
2022-12-19T16:01:33.130Z,-0.76
2022-12-19T16:04:03.863Z,-0.74
2022-12-19T16:06:33.744Z,-0.81
2022-12-19T16:09:03.428Z,-0.87
2022-12-19T16:11:34.922Z,-0.60
2022-12-19T16:14:04.370Z,-0.62
2022-12-19T16:16:34.055Z,-0.62
2022-12-19T16:19:03.415Z,-0.51
2022-12-19T16:21:34.525Z,-0.61
2022-12-19T16:24:04.009Z,-0.77
2022-12-19T16:26:38.751Z,-0.50
2022-12-19T16:29:18.134Z,-0.65
2022-12-19T16:31:47.865Z,-0.55
2022-12-19T16:34:20.549Z,-0.58
2022-12-19T16:36:50.894Z,-0.50
2022-12-19T16:39:20.732Z,-0.55
2022-12-19T16:41:52.285Z,-0.47
2022-12-19T16:44:23.798Z,-0.43
2022-12-19T16:46:53.754Z,-0.50
2022-12-19T16:49:24.034Z,-0.36
2022-12-19T16:51:54.138Z,-0.43
2022-12-19T16:54:23.413Z,-0.43
2022-12-19T16:56:55.305Z,-0.33
2022-12-19T16:59:28.686Z,-0.35
2022-12-19T17:01:59.174Z,-0.25
2022-12-19T17:04:30.161Z,-0.28
2022-12-19T17:07:00.269Z,-0.40
2022-12-19T17:09:29.656Z,-0.32
2022-12-19T17:12:02.492Z,-0.49
2022-12-19T17:14:33.785Z,-0.27
2022-12-19T17:17:03.556Z,-0.32
2022-12-19T17:19:37.425Z,-0.24
2022-12-19T17:22:14.192Z,-0.23
2022-12-19T17:24:44.691Z,-0.32
2022-12-19T17:27:17.503Z,-0.35
2022-12-19T17:29:47.300Z,-0.34
2022-12-19T17:32:23.572Z,-0.27
2022-12-19T17:34:54.429Z,-0.27
2022-12-19T17:37:24.139Z,-0.29
2022-12-19T17:39:53.478Z,-0.25
2022-12-19T17:42:28.738Z,-0.18
2022-12-19T17:45:00.027Z,-0.30
2022-12-19T17:47:31.971Z,-0.24
2022-12-19T17:50:01.466Z,-0.27
2022-12-19T17:52:35.696Z,-0.20
2022-12-19T17:55:16.465Z,-0.30
2022-12-19T17:57:47.702Z,-0.26
2022-12-19T18:00:19.219Z,-0.18
2022-12-19T18:02:51.307Z,-0.20
2022-12-19T18:05:24.137Z,-0.25
2022-12-19T18:07:55.030Z,-0.27
2022-12-19T18:10:26.086Z,-0.20
2022-12-19T18:12:57.841Z,-0.31
2022-12-19T18:15:27.304Z,-0.05
2022-12-19T18:17:56.995Z,-0.24
2022-12-19T18:20:31.856Z,-0.13
2022-12-19T18:23:02.016Z,-0.11
2022-12-19T18:25:35.257Z,-0.07
2022-12-19T18:28:06.761Z,-0.03
2022-12-19T18:30:37.238Z,-0.11
2022-12-19T18:33:08.055Z,-0.21
2022-12-19T18:35:39.630Z,-0.11
2022-12-19T18:38:13.671Z,-0.15
2022-12-19T18:40:43.120Z,-0.12
2022-12-19T18:43:14.925Z,-0.13
2022-12-19T18:45:47.416Z,-0.25
2022-12-19T18:48:22.037Z,-0.17
2022-12-19T18:50:51.471Z,-0.08
2022-12-19T18:53:23.250Z,-0.13
2022-12-19T18:55:54.041Z,-0.05
2022-12-19T18:58:25.384Z,-0.01
2022-12-19T19:00:59.332Z,-0.07
2022-12-19T19:03:31.693Z,-0.14
2022-12-19T19:06:01.723Z,-0.14
2022-12-19T19:08:34.124Z,-0.01
2022-12-19T19:11:25.060Z,-0.03
2022-12-19T19:13:56.187Z,-0.05
2022-12-19T19:16:28.149Z,-0.01
2022-12-19T19:18:59.981Z,0.00
2022-12-19T19:21:33.653Z,0.00
2022-12-19T19:24:08.839Z,-0.14
2022-12-19T19:26:38.117Z,-0.01
2022-12-19T19:29:09.513Z,0.03
2022-12-19T19:31:41.690Z,-0.02
2022-12-19T19:34:16.932Z,-0.14
2022-12-19T19:36:49.715Z,0.01
2022-12-19T19:39:20.099Z,-0.08
2022-12-19T19:41:49.554Z,-0.24
2022-12-19T19:44:20.520Z,-0.03
2022-12-19T19:46:50.114Z,-0.08
2022-12-19T19:49:21.143Z,0.02
2022-12-19T19:51:50.424Z,0.15
2022-12-19T19:54:20.266Z,0.07
2022-12-19T19:56:49.930Z,0.06
2022-12-19T19:59:21.510Z,0.12
2022-12-19T20:01:54.342Z,0.30
2022-12-19T20:04:24.339Z,0.25
2022-12-19T20:06:53.892Z,0.12
2022-12-19T20:09:23.512Z,0.05
2022-12-19T20:11:52.860Z,0.15
2022-12-19T20:14:24.346Z,0.19
2022-12-19T20:16:53.829Z,0.09
2022-12-19T20:19:23.660Z,0.13
2022-12-19T20:21:53.213Z,0.17
2022-12-19T20:24:22.979Z,0.34
2022-12-19T20:26:52.293Z,0.32
2022-12-19T20:29:23.438Z,0.31
2022-12-19T20:31:53.442Z,0.45
2022-12-19T20:34:23.052Z,0.36
2022-12-19T20:36:52.557Z,0.66
2022-12-19T20:39:23.109Z,0.49
2022-12-19T20:41:53.507Z,0.52
2022-12-19T20:44:24.856Z,0.47
2022-12-19T20:46:54.469Z,0.54
2022-12-19T20:49:25.445Z,0.68
2022-12-19T20:51:54.914Z,0.72
2022-12-19T20:54:24.703Z,0.53
2022-12-19T20:56:54.054Z,0.59
2022-12-19T20:59:25.031Z,0.68
2022-12-19T21:01:55.425Z,0.71
2022-12-19T21:04:25.201Z,0.78
2022-12-19T21:06:54.954Z,0.95
2022-12-19T21:09:24.584Z,0.84
2022-12-19T21:11:53.959Z,0.89
2022-12-19T21:14:25.160Z,0.87
2022-12-19T21:16:54.420Z,0.99
2022-12-19T21:19:24.085Z,1.01
2022-12-19T21:21:53.613Z,0.96
2022-12-19T21:24:23.248Z,1.06
2022-12-19T21:26:57.706Z,0.95
2022-12-19T21:29:29.213Z,1.15
2022-12-19T21:31:58.528Z,1.02
2022-12-19T21:34:28.528Z,1.09
2022-12-19T21:36:58.103Z,1.25
2022-12-19T21:39:27.638Z,1.13
2022-12-19T21:41:56.832Z,1.03
2022-12-19T21:44:27.873Z,1.20
2022-12-19T21:46:57.229Z,1.29
2022-12-19T21:49:26.940Z,1.36
2022-12-19T21:51:56.274Z,1.41
2022-12-19T21:54:25.831Z,1.36
2022-12-19T21:56:55.144Z,1.57
2022-12-19T21:59:24.722Z,1.68
2022-12-19T22:01:55.735Z,1.52
2022-12-19T22:04:27.514Z,1.58
2022-12-19T22:06:56.841Z,1.70
2022-12-19T22:09:27.319Z,1.76
2022-12-19T22:11:56.614Z,1.88
2022-12-19T22:14:26.317Z,1.85
2022-12-19T22:16:56.985Z,1.92
2022-12-19T22:19:26.611Z,2.02
2022-12-19T22:21:55.989Z,2.03
2022-12-19T22:24:25.688Z,1.94
2022-12-19T22:26:54.951Z,2.09
2022-12-19T22:29:24.995Z,2.02
2022-12-19T22:31:55.819Z,2.10
2022-12-19T22:34:25.473Z,2.20
2022-12-19T22:36:54.783Z,2.14
2022-12-19T22:39:24.605Z,2.24
2022-12-19T22:41:54.027Z,2.22
2022-12-19T22:44:25.513Z,2.25
2022-12-19T22:46:56.192Z,2.21
2022-12-19T22:49:25.906Z,2.39
2022-12-19T22:51:55.270Z,2.42
2022-12-19T22:54:24.807Z,2.42
2022-12-19T22:56:54.111Z,2.33
2022-12-19T22:59:23.719Z,2.43
2022-12-19T23:01:54.160Z,2.44
2022-12-19T23:04:25.475Z,2.44
2022-12-19T23:06:54.863Z,2.48
2022-12-19T23:09:24.619Z,2.51
2022-12-19T23:11:54.068Z,2.63
2022-12-19T23:14:24.029Z,2.63
2022-12-19T23:16:53.381Z,2.64
2022-12-19T23:19:24.527Z,2.77
2022-12-19T23:21:53.809Z,2.69
2022-12-19T23:24:23.445Z,2.75
2022-12-19T23:26:55.558Z,2.84
2022-12-19T23:29:25.602Z,2.79
2022-12-19T23:31:54.888Z,2.82
2022-12-19T23:34:25.928Z,2.90
2022-12-19T23:37:11.868Z,2.99
2022-12-19T23:39:42.059Z,3.04
2022-12-19T23:42:11.376Z,3.08
2022-12-19T23:44:40.942Z,3.10
2022-12-19T23:47:10.427Z,3.09
2022-12-19T23:49:41.476Z,3.10
2022-12-19T23:52:10.983Z,3.15
2022-12-19T23:54:40.678Z,3.34
2022-12-19T23:57:09.971Z,3.39
2022-12-19T23:59:39.610Z,3.43
